x

Cedar Key, Fl (cdrf1) Weather Station

6:00pm - Tue 21st Apr 2015 All times are EDT. -4 hours from GMT.

  • Wind
    8mph, 9mph gusts
  • Air Temp 75°f
  • Sea Pressure 1014.5mb
  • Cedar Key, Fl
  • Cedar Key, Fl

More Historic Weather Station data

Upgrade to MSW Pro to gain access to the past 30 days of data for over 8000 Wavebouys and Weather Stations around the globe.

Join Pro

Comparision Forecast

View Surf forecast
   
Tue 04/21 6:00pm 8 9 mph 1014.5mb 75f
5:00pm 6 8 mph 1014.3mb 76f
4:00pm 9 14 mph 1014.8mb 76f
3:00pm 8 11 mph 1015.2mb 76f
2:00pm 7 10 mph 1015.7mb 75f
1:00pm 7 9 mph 1016mb 75f
12:00pm 5 8 mph 1016.3mb 74f
11:00am 2
mph
1016.3mb 73f
10:00am 3 6 mph 1015.9mb 72f
9:00am 7 9 mph 1015.5mb 71f
8:00am 10 14 mph 1015mb 71f
7:00am 5 8 mph 1013.9mb 73f
6:00am 5 6 mph 1013.1mb 73f
5:00am 8 11 mph 1013.2mb 73f
4:00am 9 13 mph 1013.2mb 74f
3:00am 15 21 mph 1013.5mb 74f
2:00am 8 13 mph 1013.8mb 74f
1:00am 10 15 mph 1014mb 73f
12:00am 11 13 mph 1013.7mb 73f
Mon 04/20 11:00pm 14 15 mph 1013.4mb 72f
10:00pm 14 15 mph 1012.9mb 72f
9:00pm 13 15 mph 1012.5mb 70f
8:00pm 11 13 mph 1012mb 69f
7:00pm 11 14 mph 1011.6mb 68f
6:00pm 16 17 mph 1010.1mb 68f
5:00pm 5 6 mph 1012.7mb 67f
4:00pm 7 11 mph 1013.2mb 65f
3:00pm 11 18 mph 1013.7mb 65f
2:00pm 16 23 mph 1013.3mb 70f
1:00pm 10 14 mph 1013.2mb 77f
12:00pm 8 11 mph 1013.6mb 78f
11:00am 7 9 mph 1013.8mb 78f
10:00am 6 8 mph 1013mb 77f
9:00am 6 8 mph 1012.3mb 77f
8:00am 6 7 mph 1011.9mb 76f
7:00am 5 6 mph 1011.2mb 76f
6:00am 2
mph
1011.6mb 75f
5:00am 5 7 mph 1011.6mb 76f
4:00am 5 6 mph 1011.5mb 76f
3:00am 5 7 mph 1011.8mb 75f
2:00am 5 6 mph 1011.6mb 75f
1:00am 5 7 mph 1012mb 75f
12:00am 8 13 mph 1011.6mb 75f
Sun 04/19 11:00pm 10 15 mph 1012.2mb 76f
10:00pm 11 16 mph 1012.1mb 75f
9:00pm 11 15 mph 1011.8mb 75f
8:00pm 8 10 mph 1011.4mb 74f
7:00pm 5 7 mph 1012.6mb 73f
6:00pm 2 3 mph 1012.8mb 70f
5:00pm 10 14 mph 1013.3mb 71f
4:00pm 11 17 mph 1013.2mb 78f
3:00pm 15 20 mph 1013.8mb 79f
2:00pm 16 20 mph 1013.6mb 79f
1:00pm 18 22 mph 1013.7mb 80f
12:00pm 16 20 mph 1013.4mb 79f
11:00am 22 24 mph 1013mb 78f
10:00am 21 23 mph 1012.7mb 77f
9:00am 20 22 mph 1012.2mb 77f
8:00am 21 23 mph 1012.5mb 77f
7:00am 15 16 mph 1012.5mb 77f
6:00am 2
mph
1013.9mb 76f
5:00am 3 7 mph 1014.2mb 77f
4:00am 3 6 mph 1014mb 77f
3:00am 5 6 mph 1014.1mb 77f
2:00am 3 5 mph 1014.4mb 77f
1:00am 3 5 mph 1014.8mb 77f
12:00am 6
mph
1014.9mb 77f
Sat 04/18 11:00pm 2 3 mph 1015mb 77f
10:00pm 2 5 mph 1015.1mb 77f
9:00pm 6 7 mph 1014.9mb 77f
8:00pm 7 9 mph 1014.4mb 77f
7:00pm 6 9 mph 1014.1mb 77f
6:00pm 7 9 mph 1014mb 78f
5:00pm 8 9 mph 1014mb 78f
4:00pm 7 10 mph 1014.3mb 78f
3:00pm 8 11 mph 1015mb 78f
2:00pm 8 11 mph 1015.7mb 78f
1:00pm 8 11 mph 1016.3mb 78f
12:00pm 8 11 mph 1016.6mb 78f
11:00am 7 10 mph 1016.3mb 78f
10:00am 7 9 mph 1015.8mb 77f
9:00am 7 9 mph 1015.4mb 77f
8:00am 5 7 mph 1014.9mb 76f
7:00am 7 10 mph 1014.6mb 76f
6:00am 8 11 mph 1014.2mb 76f
5:00am 7 9 mph 1014.2mb 76f
4:00am 6 9 mph 1014.5mb 76f
3:00am 5 6 mph 1014.9mb 76f
2:00am 9 11 mph 1015.3mb 76f
1:00am 7
mph
1016.1mb 76f
12:00am 8
mph
1016.4mb 74f